EGTK/OXF METAR and TAF weather

Enter ICAO airport designator
Station Type Date Time Source
EGTK METAR 2019/08/18 20:20 UTC NOAA

EGTK 182020Z 23012KT CAVOK 14/10 Q1007


Station Type Date Time Source
EGTK Decoded METAR 2019/08/18 20:20 UTC NOAA

Station name not available
Aug 18, 2019 - 04:20 PM EDT / 2019.08.18 2020 UTC
Wind: from the SW (230 degrees) at 14 MPH (12 KT):0
Visibility: greater than 7 mile(s):0
Temperature: 57 F (14 C)
Dew Point: 50 F (10 C)
Relative Humidity: 76%
Pressure (altimeter): 29.74 in. Hg (1007 hPa)
ob: EGTK 182020Z 23012KT CAVOK 14/10 Q1007
cycle: 20

Station Type Date Time Source
EGTK TAF UTC NOAA

Error!

Example: see airport list